createdAt,value
2018-11-12T00:00:32.553Z,957.94
2018-11-12T00:01:32.555Z,957.95
2018-11-12T00:02:32.556Z,957.97
2018-11-12T00:03:32.557Z,957.92
2018-11-12T00:04:32.560Z,957.91
2018-11-12T00:05:32.563Z,957.88
2018-11-12T00:06:32.564Z,957.89
2018-11-12T00:07:32.617Z,957.88
2018-11-12T00:08:32.569Z,957.94
2018-11-12T00:09:32.570Z,957.89
2018-11-12T00:10:32.573Z,957.93
2018-11-12T00:11:32.575Z,957.97
2018-11-12T00:12:32.626Z,958.01
2018-11-12T00:13:32.579Z,958
2018-11-12T00:14:32.584Z,958.01
2018-11-12T00:15:32.581Z,958
2018-11-12T00:16:32.583Z,957.95
2018-11-12T00:17:32.634Z,957.98
2018-11-12T00:18:32.586Z,957.96
2018-11-12T00:19:32.588Z,957.99
2018-11-12T00:20:32.590Z,957.96
2018-11-12T00:21:32.592Z,958.03
2018-11-12T00:22:32.647Z,958.02
2018-11-12T00:23:32.595Z,958.03
2018-11-12T00:24:32.599Z,958.1
2018-11-12T00:25:32.601Z,958.11
2018-11-12T00:26:32.602Z,958.11
2018-11-12T00:27:32.604Z,958.16
2018-11-12T00:28:32.606Z,958.12
2018-11-12T00:29:32.608Z,958.14
2018-11-12T00:30:32.611Z,958.14
2018-11-12T00:31:32.612Z,958.18
2018-11-12T00:32:32.614Z,958.17
2018-11-12T00:33:32.617Z,958.16
2018-11-12T00:34:32.618Z,958.15
2018-11-12T00:35:32.621Z,958.14
2018-11-12T00:36:32.622Z,958.15
2018-11-12T00:37:32.674Z,958.18
2018-11-12T00:38:32.624Z,958.18
2018-11-12T00:39:32.625Z,958.16
2018-11-12T00:40:32.627Z,958.17
2018-11-12T00:41:32.630Z,958.17
2018-11-12T00:42:32.632Z,958.22
2018-11-12T00:43:32.633Z,958.24
2018-11-12T00:44:32.638Z,958.26
2018-11-12T00:45:32.638Z,958.3
2018-11-12T00:46:32.641Z,958.27
2018-11-12T00:47:32.648Z,958.25
2018-11-12T00:48:32.643Z,958.21
2018-11-12T00:49:32.646Z,958.26
2018-11-12T00:50:32.646Z,958.27
2018-11-12T00:51:32.647Z,958.3
2018-11-12T00:52:32.701Z,958.3
2018-11-12T00:53:32.652Z,958.3
2018-11-12T00:54:32.653Z,958.3
2018-11-12T00:55:32.655Z,958.28
2018-11-12T00:56:32.657Z,958.3
2018-11-12T00:57:32.662Z,958.31
2018-11-12T00:58:32.664Z,958.33
2018-11-12T00:59:32.664Z,958.33
2018-11-12T01:00:32.668Z,958.28
2018-11-12T01:01:32.669Z,958.3
2018-11-12T01:02:32.719Z,958.27
2018-11-12T01:03:32.670Z,958.27
2018-11-12T01:04:32.677Z,958.25
2018-11-12T01:05:32.678Z,958.28
2018-11-12T01:06:32.676Z,958.32
2018-11-12T01:07:32.729Z,958.37
2018-11-12T01:08:32.679Z,958.36
2018-11-12T01:09:32.683Z,958.34
2018-11-12T01:10:32.683Z,958.34
2018-11-12T01:11:32.686Z,958.34
2018-11-12T01:12:32.686Z,958.33
2018-11-12T01:13:32.688Z,958.37
2018-11-12T01:14:32.690Z,958.39
2018-11-12T01:15:32.691Z,958.38
2018-11-12T01:16:32.693Z,958.4
2018-11-12T01:17:32.695Z,958.39
2018-11-12T01:18:32.697Z,958.38
2018-11-12T01:19:32.697Z,958.36
2018-11-12T01:20:32.699Z,958.43
2018-11-12T01:21:32.702Z,958.37
2018-11-12T01:22:32.753Z,958.35
2018-11-12T01:23:32.704Z,958.31
2018-11-12T01:24:32.706Z,958.31
2018-11-12T01:25:32.708Z,958.26
2018-11-12T01:26:32.710Z,958.28
2018-11-12T01:27:32.724Z,958.24
2018-11-12T01:28:32.713Z,958.23
2018-11-12T01:29:32.716Z,958.25
2018-11-12T01:30:32.716Z,958.23
2018-11-12T01:31:32.718Z,958.22
2018-11-12T01:32:32.719Z,958.23
2018-11-12T01:33:32.720Z,958.26
2018-11-12T01:34:32.723Z,958.26
2018-11-12T01:35:32.729Z,958.21
2018-11-12T01:36:32.728Z,958.16
2018-11-12T01:37:32.777Z,958.17
2018-11-12T01:38:32.727Z,958.19
2018-11-12T01:39:32.730Z,958.14
2018-11-12T01:40:32.851Z,958.14
2018-11-12T01:41:32.733Z,958.14
2018-11-12T01:42:32.785Z,958.07
2018-11-12T01:43:32.737Z,958.06
2018-11-12T01:44:32.737Z,958.04
2018-11-12T01:45:32.740Z,958.04
2018-11-12T01:46:32.740Z,958.02
2018-11-12T01:47:32.743Z,958.02
2018-11-12T01:48:32.743Z,958.03
2018-11-12T01:49:32.745Z,958.02
2018-11-12T01:50:32.745Z,958.07
2018-11-12T01:51:32.747Z,958.03
2018-11-12T01:52:32.799Z,958.03
2018-11-12T01:53:32.749Z,957.97
2018-11-12T01:54:32.752Z,957.96
2018-11-12T01:55:32.752Z,957.98
2018-11-12T01:56:32.756Z,957.92
2018-11-12T01:57:32.756Z,957.9
2018-11-12T01:58:32.757Z,957.95
2018-11-12T01:59:32.759Z,957.96
2018-11-12T02:00:32.758Z,958.02
2018-11-12T02:01:32.814Z,958.05
2018-11-12T02:02:32.758Z,958.06
2018-11-12T02:03:32.760Z,958.05
2018-11-12T02:04:32.762Z,958.14
2018-11-12T02:05:32.764Z,958.15
2018-11-12T02:06:32.764Z,958.18
2018-11-12T02:07:32.819Z,958.2
2018-11-12T02:08:32.809Z,958.21
2018-11-12T02:09:32.770Z,958.16
2018-11-12T02:10:32.821Z,958.18
2018-11-12T02:11:32.772Z,958.2
2018-11-12T02:12:32.773Z,958.23
2018-11-12T02:13:32.776Z,958.19
2018-11-12T02:14:32.781Z,958.17
2018-11-12T02:15:32.776Z,958.16
2018-11-12T02:16:32.779Z,958.16
2018-11-12T02:17:32.780Z,958.13
2018-11-12T02:18:32.783Z,958.13
2018-11-12T02:19:32.783Z,958.1
2018-11-12T02:20:32.796Z,958.13
2018-11-12T02:21:32.798Z,958.11
2018-11-12T02:22:32.927Z,958.11
2018-11-12T02:23:32.786Z,958.13
2018-11-12T02:24:32.788Z,958.12
2018-11-12T02:25:32.788Z,958.07
2018-11-12T02:26:32.793Z,958.07
2018-11-12T02:27:32.791Z,958.04
2018-11-12T02:28:32.792Z,958.03
2018-11-12T02:29:32.845Z,958.04
2018-11-12T02:30:32.805Z,958.02
2018-11-12T02:31:32.795Z,958.04
2018-11-12T02:32:32.806Z,958.05
2018-11-12T02:33:32.797Z,958.01
2018-11-12T02:34:32.801Z,958.04
2018-11-12T02:35:32.801Z,958.11
2018-11-12T02:36:32.802Z,958.11
2018-11-12T02:37:32.855Z,958.13
2018-11-12T02:38:32.803Z,958.16
2018-11-12T02:39:32.806Z,958.17
2018-11-12T02:40:32.812Z,958.15
2018-11-12T02:41:32.806Z,958.17
2018-11-12T02:42:32.808Z,958.16
2018-11-12T02:43:32.809Z,958.17
2018-11-12T02:44:32.811Z,958.13
2018-11-12T02:45:32.811Z,958.1
2018-11-12T02:46:32.813Z,958.11
2018-11-12T02:47:32.813Z,958.11
2018-11-12T02:48:32.814Z,958.06
2018-11-12T02:49:32.818Z,958.05
2018-11-12T02:50:32.815Z,958.09
2018-11-12T02:51:32.816Z,958.13
2018-11-12T02:52:32.867Z,958.13
2018-11-12T02:53:32.826Z,958.09
2018-11-12T02:54:32.823Z,958.11
2018-11-12T02:55:32.821Z,958.09
2018-11-12T02:56:32.832Z,958.06
2018-11-12T02:57:32.896Z,958.07
2018-11-12T02:58:32.821Z,958.1
2018-11-12T02:59:32.822Z,958.06
2018-11-12T03:00:32.827Z,958.07
2018-11-12T03:01:32.824Z,958.05
2018-11-12T03:02:32.875Z,958.06
2018-11-12T03:03:32.826Z,958.07
2018-11-12T03:04:32.827Z,958.09
2018-11-12T03:05:32.827Z,958.11
2018-11-12T03:06:32.829Z,958.16
2018-11-12T03:07:32.889Z,958.13
2018-11-12T03:08:32.842Z,958.1
2018-11-12T03:09:32.832Z,958.14
2018-11-12T03:10:32.833Z,958.13
2018-11-12T03:11:32.835Z,958.1
2018-11-12T03:12:32.836Z,958.03
2018-11-12T03:13:32.835Z,958.02
2018-11-12T03:14:32.838Z,958.04
2018-11-12T03:15:32.837Z,958.04
2018-11-12T03:16:32.838Z,958.03
2018-11-12T03:17:32.889Z,958.01
2018-11-12T03:18:32.839Z,958.03
2018-11-12T03:19:32.841Z,958
2018-11-12T03:20:32.842Z,957.99
2018-11-12T03:21:32.841Z,958.03
2018-11-12T03:22:32.844Z,958.04
2018-11-12T03:23:32.853Z,958.02
2018-11-12T03:24:32.847Z,958.05
2018-11-12T03:25:32.846Z,958.04
2018-11-12T03:26:32.850Z,958.06
2018-11-12T03:27:32.898Z,958.04
2018-11-12T03:28:32.849Z,958.05
2018-11-12T03:29:32.846Z,958.04
2018-11-12T03:30:33.339Z,958.09
2018-11-12T03:31:32.849Z,958.1
2018-11-12T03:32:32.899Z,958.13
2018-11-12T03:33:32.850Z,958.17
2018-11-12T03:34:32.852Z,958.17
2018-11-12T03:35:32.849Z,958.18
2018-11-12T03:36:32.850Z,958.22
2018-11-12T03:37:32.855Z,958.22
2018-11-12T03:38:32.856Z,958.25
2018-11-12T03:39:32.899Z,958.21
2018-11-12T03:40:32.859Z,958.22
2018-11-12T03:41:32.857Z,958.23
2018-11-12T03:42:32.858Z,958.21
2018-11-12T03:43:32.858Z,958.24
2018-11-12T03:44:32.861Z,958.28
2018-11-12T03:45:32.865Z,958.29
2018-11-12T03:46:32.860Z,958.23
2018-11-12T03:47:32.912Z,958.27
2018-11-12T03:48:32.863Z,958.29
2018-11-12T03:49:32.864Z,958.28
2018-11-12T03:50:32.866Z,958.28
2018-11-12T03:51:32.865Z,958.3
2018-11-12T03:52:32.867Z,958.31
2018-11-12T03:53:32.866Z,958.31
2018-11-12T03:54:32.866Z,958.3
2018-11-12T03:55:32.868Z,958.3
2018-11-12T03:56:32.869Z,958.31
2018-11-12T03:57:32.868Z,958.35
2018-11-12T03:58:32.870Z,958.33
2018-11-12T03:59:32.875Z,958.36
2018-11-12T04:00:32.871Z,958.33
2018-11-12T04:01:32.873Z,958.32
2018-11-12T04:02:32.924Z,958.33
2018-11-12T04:03:32.877Z,958.33
2018-11-12T04:04:32.874Z,958.35
2018-11-12T04:05:32.876Z,958.39
2018-11-12T04:06:32.876Z,958.33
2018-11-12T04:07:32.928Z,958.37
2018-11-12T04:08:32.879Z,958.36
2018-11-12T04:09:32.879Z,958.37
2018-11-12T04:10:32.881Z,958.38
2018-11-12T04:11:32.881Z,958.39
2018-11-12T04:12:32.881Z,958.4
2018-11-12T04:13:32.882Z,958.42
2018-11-12T04:14:32.884Z,958.4
2018-11-12T04:15:32.884Z,958.39
2018-11-12T04:16:32.885Z,958.41
2018-11-12T04:17:32.884Z,958.35
2018-11-12T04:18:32.886Z,958.34
2018-11-12T04:19:32.916Z,958.29
2018-11-12T04:20:32.895Z,958.25
2018-11-12T04:21:32.889Z,958.22
2018-11-12T04:22:32.938Z,958.18
2018-11-12T04:23:32.893Z,958.2
2018-11-12T04:24:32.890Z,958.19
2018-11-12T04:25:32.889Z,958.17
2018-11-12T04:26:32.889Z,958.19
2018-11-12T04:27:32.891Z,958.18
2018-11-12T04:28:32.892Z,958.17
2018-11-12T04:29:32.891Z,958.15
2018-11-12T04:30:32.899Z,958.12
2018-11-12T04:31:32.893Z,958.11
2018-11-12T04:32:32.902Z,958.11
2018-11-12T04:33:32.896Z,958.09
2018-11-12T04:34:32.894Z,958.06
2018-11-12T04:35:32.908Z,958.04
2018-11-12T04:36:32.897Z,958.04
2018-11-12T04:37:32.946Z,957.97
2018-11-12T04:38:32.899Z,957.99
2018-11-12T04:39:32.897Z,957.99
2018-11-12T04:40:32.898Z,958.03
2018-11-12T04:41:32.897Z,957.98
2018-11-12T04:42:32.899Z,958.02
2018-11-12T04:43:32.900Z,958.02
2018-11-12T04:44:32.901Z,958.07
2018-11-12T04:45:32.942Z,958.05
2018-11-12T04:46:32.905Z,958.1
2018-11-12T04:47:32.904Z,958.12
2018-11-12T04:48:32.905Z,958.08
2018-11-12T04:49:32.905Z,958.14
2018-11-12T04:50:32.907Z,958.16
2018-11-12T04:51:32.906Z,958.14
2018-11-12T04:52:32.961Z,958.1
2018-11-12T04:53:32.963Z,958.09
2018-11-12T04:54:32.908Z,958.09
2018-11-12T04:55:32.909Z,958.1
2018-11-12T04:56:32.910Z,958.14
2018-11-12T04:57:32.908Z,958.16
2018-11-12T04:58:32.912Z,958.16
2018-11-12T04:59:32.910Z,958.17
2018-11-12T05:00:32.913Z,958.19
2018-11-12T05:01:32.913Z,958.19
2018-11-12T05:02:32.916Z,958.17
2018-11-12T05:03:32.913Z,958.15
2018-11-12T05:04:32.916Z,958.11
2018-11-12T05:05:32.931Z,958.11
2018-11-12T05:06:32.916Z,958.13
2018-11-12T05:07:33.072Z,958.09
2018-11-12T05:08:32.916Z,958.09
2018-11-12T05:09:32.922Z,958.05
2018-11-12T05:10:32.917Z,958.05
2018-11-12T05:11:32.917Z,958.05
2018-11-12T05:12:32.919Z,958.04
2018-11-12T05:13:32.920Z,958.04
2018-11-12T05:14:32.922Z,958.1
2018-11-12T05:15:32.926Z,958.09
2018-11-12T05:16:32.970Z,958.15
2018-11-12T05:17:32.923Z,958.18
2018-11-12T05:18:32.924Z,958.19
2018-11-12T05:19:32.933Z,958.19
2018-11-12T05:20:32.925Z,958.21
2018-11-12T05:21:32.925Z,958.19
2018-11-12T05:22:33.027Z,958.17
2018-11-12T05:23:32.926Z,958.18
2018-11-12T05:24:32.936Z,958.2
2018-11-12T05:25:32.929Z,958.21
2018-11-12T05:26:32.929Z,958.2
2018-11-12T05:27:32.930Z,958.25
2018-11-12T05:28:32.929Z,958.2
2018-11-12T05:29:32.931Z,958.18
2018-11-12T05:30:32.933Z,958.16
2018-11-12T05:31:32.933Z,958.13
2018-11-12T05:32:32.934Z,958.16
2018-11-12T05:33:32.933Z,958.16
2018-11-12T05:34:32.939Z,958.16
2018-11-12T05:35:32.934Z,958.19
2018-11-12T05:36:32.937Z,958.13
2018-11-12T05:37:33.013Z,958.16
2018-11-12T05:38:32.955Z,958.14
2018-11-12T05:39:32.939Z,958.11
2018-11-12T05:40:32.940Z,958.11
2018-11-12T05:41:32.940Z,958.11
2018-11-12T05:42:32.943Z,958.15
2018-11-12T05:43:32.940Z,958.15
2018-11-12T05:44:32.943Z,958.12
2018-11-12T05:45:32.942Z,958.13
2018-11-12T05:46:32.944Z,958.16
2018-11-12T05:47:32.943Z,958.17
2018-11-12T05:48:32.947Z,958.15
2018-11-12T05:49:32.946Z,958.17
2018-11-12T05:50:32.945Z,958.18
2018-11-12T05:51:32.983Z,958.21
2018-11-12T05:52:32.999Z,958.19
2018-11-12T05:53:32.947Z,958.25
2018-11-12T05:54:32.949Z,958.22
2018-11-12T05:55:32.951Z,958.18
2018-11-12T05:56:32.950Z,958.21
2018-11-12T05:57:32.949Z,958.18
2018-11-12T05:58:32.951Z,958.21
2018-11-12T05:59:32.952Z,958.23
2018-11-12T06:00:32.954Z,958.2
2018-11-12T06:01:32.960Z,958.21
2018-11-12T06:02:32.953Z,958.24
2018-11-12T06:03:32.955Z,958.2
2018-11-12T06:04:32.956Z,958.2
2018-11-12T06:05:32.955Z,958.23
2018-11-12T06:06:32.956Z,958.16
2018-11-12T06:07:33.008Z,958.16
2018-11-12T06:08:32.960Z,958.16
2018-11-12T06:09:32.958Z,958.15
2018-11-12T06:10:32.959Z,958.11
2018-11-12T06:11:32.980Z,958.15
2018-11-12T06:12:32.960Z,958.11
2018-11-12T06:13:32.961Z,958.16
2018-11-12T06:14:32.961Z,958.12
2018-11-12T06:15:32.963Z,958.14
2018-11-12T06:16:32.962Z,958.17
2018-11-12T06:17:32.961Z,958.17
2018-11-12T06:18:32.964Z,958.12
2018-11-12T06:19:32.962Z,958.18
2018-11-12T06:20:32.962Z,958.16
2018-11-12T06:21:32.965Z,958.25
2018-11-12T06:22:33.059Z,958.26
2018-11-12T06:23:32.964Z,958.26
2018-11-12T06:24:32.964Z,958.32
2018-11-12T06:25:32.970Z,958.29
2018-11-12T06:26:32.964Z,958.34
2018-11-12T06:27:32.966Z,958.35
2018-11-12T06:28:32.967Z,958.4
2018-11-12T06:29:32.967Z,958.38
2018-11-12T06:30:32.967Z,958.41
2018-11-12T06:31:32.970Z,958.43
2018-11-12T06:32:32.990Z,958.46
2018-11-12T06:33:32.984Z,958.41
2018-11-12T06:34:32.974Z,958.44
2018-11-12T06:35:32.975Z,958.46
2018-11-12T06:36:33.026Z,958.42
2018-11-12T06:37:33.068Z,958.46
2018-11-12T06:38:32.977Z,958.42
2018-11-12T06:39:32.976Z,958.41
2018-11-12T06:40:32.977Z,958.39
2018-11-12T06:41:32.981Z,958.41
2018-11-12T06:42:32.995Z,958.43
2018-11-12T06:43:32.981Z,958.42
2018-11-12T06:44:32.981Z,958.43
2018-11-12T06:45:32.981Z,958.48
2018-11-12T06:46:32.983Z,958.42
2018-11-12T06:47:33.034Z,958.4
2018-11-12T06:48:32.983Z,958.45
2018-11-12T06:49:32.985Z,958.44
2018-11-12T06:50:32.984Z,958.45
2018-11-12T06:51:32.986Z,958.47
2018-11-12T06:52:33.036Z,958.51
2018-11-12T06:53:33.097Z,958.5
2018-11-12T06:54:32.988Z,958.49
2018-11-12T06:55:32.989Z,958.49
2018-11-12T06:56:32.989Z,958.44
2018-11-12T06:57:32.995Z,958.5
2018-11-12T06:58:32.995Z,958.44
2018-11-12T06:59:32.992Z,958.43
2018-11-12T07:00:32.993Z,958.4
2018-11-12T07:01:32.995Z,958.42
2018-11-12T07:02:32.995Z,958.45
2018-11-12T07:03:32.996Z,958.45
2018-11-12T07:04:32.997Z,958.49
2018-11-12T07:05:33.006Z,958.51
2018-11-12T07:06:33.070Z,958.53
2018-11-12T07:07:33.051Z,958.47
2018-11-12T07:08:33.000Z,958.5
2018-11-12T07:09:33.001Z,958.47
2018-11-12T07:10:33.011Z,958.44
2018-11-12T07:11:33.017Z,958.48
2018-11-12T07:12:33.004Z,958.46
2018-11-12T07:13:33.008Z,958.48
2018-11-12T07:14:33.009Z,958.5
2018-11-12T07:15:33.007Z,958.48
2018-11-12T07:16:33.012Z,958.49
2018-11-12T07:17:33.035Z,958.41
2018-11-12T07:18:33.013Z,958.41
2018-11-12T07:19:33.014Z,958.38
2018-11-12T07:20:33.015Z,958.41
2018-11-12T07:21:33.015Z,958.39
2018-11-12T07:22:33.069Z,958.43
2018-11-12T07:23:33.017Z,958.39
2018-11-12T07:24:33.020Z,958.41
2018-11-12T07:25:33.023Z,958.38
2018-11-12T07:26:33.024Z,958.44
2018-11-12T07:27:33.021Z,958.39
2018-11-12T07:28:33.023Z,958.44
2018-11-12T07:29:33.024Z,958.42
2018-11-12T07:30:33.078Z,958.43
2018-11-12T07:31:33.028Z,958.42
2018-11-12T07:32:33.028Z,958.43
2018-11-12T07:33:33.032Z,958.44
2018-11-12T07:34:33.034Z,958.42
2018-11-12T07:35:33.036Z,958.43
2018-11-12T07:36:33.044Z,958.39
2018-11-12T07:37:33.092Z,958.35
2018-11-12T07:38:33.040Z,958.32
2018-11-12T07:39:33.040Z,958.34
2018-11-12T07:40:33.041Z,958.31
2018-11-12T07:41:33.044Z,958.31
2018-11-12T07:42:33.048Z,958.29
2018-11-12T07:43:33.046Z,958.24
2018-11-12T07:44:33.048Z,958.27
2018-11-12T07:45:33.052Z,958.29
2018-11-12T07:46:33.055Z,958.25
2018-11-12T07:47:33.055Z,958.24
2018-11-12T07:48:33.120Z,958.23
2018-11-12T07:49:33.060Z,958.2
2018-11-12T07:50:33.060Z,958.19
2018-11-12T07:51:33.061Z,958.27
2018-11-12T07:52:33.114Z,958.28
2018-11-12T07:53:33.065Z,958.29
2018-11-12T07:54:33.066Z,958.31
2018-11-12T07:55:33.069Z,958.27
2018-11-12T07:56:33.072Z,958.26
2018-11-12T07:57:33.078Z,958.29
2018-11-12T07:58:33.078Z,958.37
2018-11-12T07:59:33.078Z,958.3
2018-11-12T08:00:33.104Z,958.34
2018-11-12T08:01:33.094Z,958.26
2018-11-12T08:02:33.086Z,958.24
2018-11-12T08:03:33.125Z,958.21
2018-11-12T08:04:33.090Z,958.25
2018-11-12T08:05:33.093Z,958.19
2018-11-12T08:06:33.093Z,958.26
2018-11-12T08:07:33.148Z,958.22
2018-11-12T08:08:33.100Z,958.21
2018-11-12T08:09:33.209Z,958.18
2018-11-12T08:10:33.110Z,958.15
2018-11-12T08:11:33.107Z,958.14
2018-11-12T08:12:33.110Z,958.16
2018-11-12T08:13:33.112Z,958.16
2018-11-12T08:14:33.226Z,958.22
2018-11-12T08:15:33.157Z,958.2
2018-11-12T08:16:33.134Z,958.25
2018-11-12T08:17:33.320Z,958.28
2018-11-12T08:18:33.127Z,958.28
2018-11-12T08:19:33.130Z,958.26
2018-11-12T08:20:33.133Z,958.26
2018-11-12T08:21:33.189Z,958.3
2018-11-12T08:22:33.189Z,958.27
2018-11-12T08:23:33.139Z,958.28
2018-11-12T08:24:33.152Z,958.32
2018-11-12T08:25:33.147Z,958.27
2018-11-12T08:26:33.160Z,958.25
2018-11-12T08:27:33.305Z,958.23
2018-11-12T08:28:33.158Z,958.28
2018-11-12T08:29:33.170Z,958.22
2018-11-12T08:30:33.190Z,958.22
2018-11-12T08:31:33.167Z,958.23
2018-11-12T08:32:33.172Z,958.17
2018-11-12T08:33:33.173Z,958.2
2018-11-12T08:34:33.175Z,958.21
2018-11-12T08:35:33.180Z,958.22
2018-11-12T08:36:33.250Z,958.28
2018-11-12T08:37:33.238Z,958.27
2018-11-12T08:38:33.189Z,958.28
2018-11-12T08:39:33.318Z,958.33
2018-11-12T08:40:33.355Z,958.3
2018-11-12T08:41:33.202Z,958.27
2018-11-12T08:42:33.204Z,958.28
2018-11-12T08:43:33.210Z,958.3
2018-11-12T08:44:33.213Z,958.34
2018-11-12T08:45:33.216Z,958.36
2018-11-12T08:46:33.222Z,958.33
2018-11-12T08:47:33.325Z,958.37
2018-11-12T08:48:33.295Z,958.34
2018-11-12T08:49:33.338Z,958.35
2018-11-12T08:50:33.236Z,958.29
2018-11-12T08:51:33.242Z,958.33
2018-11-12T08:52:33.299Z,958.35
2018-11-12T08:53:33.252Z,958.35
2018-11-12T08:54:33.304Z,958.32
2018-11-12T08:55:33.273Z,958.35
2018-11-12T08:56:33.263Z,958.39
2018-11-12T08:57:33.269Z,958.41
2018-11-12T08:58:33.273Z,958.47
2018-11-12T08:59:33.320Z,958.45
2018-11-12T09:00:33.299Z,958.43
2018-11-12T09:01:33.287Z,958.45
2018-11-12T09:02:33.294Z,958.42
2018-11-12T09:03:33.297Z,958.4
2018-11-12T09:04:33.302Z,958.44
2018-11-12T09:05:33.618Z,958.45
2018-11-12T09:06:33.310Z,958.45
2018-11-12T09:07:33.365Z,958.42
2018-11-12T09:08:33.319Z,958.38
2018-11-12T09:09:33.324Z,958.42
2018-11-12T09:10:33.328Z,958.39
2018-11-12T09:11:33.332Z,958.43
2018-11-12T09:12:33.337Z,958.44
2018-11-12T09:13:33.343Z,958.43
2018-11-12T09:14:33.347Z,958.42
2018-11-12T09:15:33.407Z,958.41
2018-11-12T09:16:33.358Z,958.42
2018-11-12T09:17:33.362Z,958.43
2018-11-12T09:18:33.372Z,958.44
2018-11-12T09:19:33.375Z,958.44
2018-11-12T09:20:33.379Z,958.41
2018-11-12T09:21:33.385Z,958.45
2018-11-12T09:22:33.440Z,958.4
2018-11-12T09:23:33.399Z,958.38
2018-11-12T09:24:33.401Z,958.38
2018-11-12T09:25:33.405Z,958.3
2018-11-12T09:26:33.410Z,958.37
2018-11-12T09:27:33.417Z,958.32
2018-11-12T09:28:33.422Z,958.31
2018-11-12T09:29:33.586Z,958.34
2018-11-12T09:30:33.433Z,958.34
2018-11-12T09:31:33.701Z,958.35
2018-11-12T09:32:33.445Z,958.36
2018-11-12T09:33:33.516Z,958.39
2018-11-12T09:34:33.455Z,958.37
2018-11-12T09:35:33.461Z,958.41
2018-11-12T09:36:33.508Z,958.42
2018-11-12T09:37:33.525Z,958.41
2018-11-12T09:38:33.541Z,958.46
2018-11-12T09:39:33.484Z,958.42
2018-11-12T09:40:33.490Z,958.4
2018-11-12T09:41:33.590Z,958.43
2018-11-12T09:42:33.501Z,958.37
2018-11-12T09:43:33.523Z,958.41
2018-11-12T09:44:33.511Z,958.42
2018-11-12T09:45:33.514Z,958.44
2018-11-12T09:46:33.522Z,958.47
2018-11-12T09:47:33.555Z,958.5
2018-11-12T09:48:33.535Z,958.59
2018-11-12T09:49:33.550Z,958.6
2018-11-12T09:50:33.548Z,958.65
2018-11-12T09:51:33.554Z,958.64
2018-11-12T09:52:34.813Z,958.66
2018-11-12T09:53:33.628Z,958.68
2018-11-12T09:54:33.771Z,958.7
2018-11-12T09:55:33.611Z,958.6
2018-11-12T09:56:33.593Z,958.62
2018-11-12T09:57:33.604Z,958.66
2018-11-12T09:58:33.612Z,958.64
2018-11-12T09:59:33.637Z,958.7
2018-11-12T10:00:33.806Z,958.71
2018-11-12T10:01:34.171Z,958.73
2018-11-12T10:02:34.654Z,958.72
2018-11-12T10:03:34.743Z,958.7
2018-11-12T10:04:34.180Z,958.7
2018-11-12T10:05:34.771Z,958.74
2018-11-12T10:06:34.847Z,958.8
2018-11-12T10:07:34.566Z,958.84
2018-11-12T10:08:35.338Z,958.86
2018-11-12T10:09:35.640Z,958.89
2018-11-12T10:10:35.364Z,958.92
2018-11-12T10:11:35.813Z,958.88
2018-11-12T10:12:36.547Z,958.87
2018-11-12T10:13:36.950Z,958.92
2018-11-12T10:14:36.826Z,958.93
2018-11-12T10:15:36.866Z,958.95
2018-11-12T10:16:38.291Z,958.98
2018-11-12T10:17:36.547Z,958.95
2018-11-12T10:18:33.842Z,958.93
2018-11-12T10:19:33.902Z,958.95
2018-11-12T10:20:33.867Z,958.96
2018-11-12T10:21:33.881Z,958.93
2018-11-12T10:22:33.944Z,958.91
2018-11-12T10:23:33.908Z,958.85
2018-11-12T10:24:33.922Z,958.9
2018-11-12T10:25:33.940Z,958.9
2018-11-12T10:26:33.950Z,958.91
2018-11-12T10:27:33.971Z,958.95
2018-11-12T10:28:33.980Z,959.01
2018-11-12T10:29:33.994Z,958.99
2018-11-12T10:30:34.009Z,958.95
2018-11-12T10:31:34.022Z,958.99
2018-11-12T10:32:34.038Z,958.99
2018-11-12T10:33:34.054Z,958.94
2018-11-12T10:34:34.086Z,958.94
2018-11-12T10:35:34.081Z,958.94
2018-11-12T10:36:34.097Z,958.92
2018-11-12T10:37:34.162Z,958.97
2018-11-12T10:38:34.128Z,959.02
2018-11-12T10:39:34.143Z,959.04
2018-11-12T10:40:34.159Z,959.01
2018-11-12T10:41:34.177Z,958.99
2018-11-12T10:42:34.238Z,958.94
2018-11-12T10:43:34.206Z,958.95
2018-11-12T10:44:34.224Z,958.94
2018-11-12T10:45:34.238Z,958.94
2018-11-12T10:46:34.255Z,958.95
2018-11-12T10:47:34.272Z,958.97
2018-11-12T10:48:34.284Z,958.94
2018-11-12T10:49:34.323Z,958.99
2018-11-12T10:50:34.319Z,959.04
2018-11-12T10:51:34.337Z,959.03
2018-11-12T10:52:34.402Z,959.02
2018-11-12T10:53:34.417Z,959.05
2018-11-12T10:54:34.486Z,959.06
2018-11-12T10:55:34.594Z,959.05
2018-11-12T10:56:34.418Z,959.05
2018-11-12T10:57:34.432Z,959.02
2018-11-12T10:58:34.556Z,958.99
2018-11-12T10:59:34.508Z,959
2018-11-12T11:00:34.489Z,958.97
2018-11-12T11:01:34.505Z,959.03
2018-11-12T11:02:34.522Z,959
2018-11-12T11:03:34.539Z,958.93
2018-11-12T11:04:34.557Z,958.91
2018-11-12T11:05:34.575Z,958.93
2018-11-12T11:06:34.610Z,958.93
2018-11-12T11:07:34.663Z,958.89
2018-11-12T11:08:34.631Z,958.91
2018-11-12T11:09:34.656Z,958.89
2018-11-12T11:10:34.670Z,958.9
2018-11-12T11:11:34.689Z,958.92
2018-11-12T11:12:34.830Z,958.94
2018-11-12T11:13:34.731Z,958.97
2018-11-12T11:14:34.746Z,958.95
2018-11-12T11:15:34.825Z,958.94
2018-11-12T11:16:34.783Z,958.92
2018-11-12T11:17:34.853Z,958.9
2018-11-12T11:18:34.822Z,958.91
2018-11-12T11:19:34.839Z,958.93
2018-11-12T11:20:34.858Z,958.97
2018-11-12T11:21:34.881Z,959
2018-11-12T11:22:34.997Z,959.01
2018-11-12T11:23:34.918Z,958.98
2018-11-12T11:24:34.939Z,958.99
2018-11-12T11:25:34.998Z,959
2018-11-12T11:26:35.016Z,958.93
2018-11-12T11:27:35.003Z,958.98
2018-11-12T11:28:35.025Z,958.96
2018-11-12T11:29:35.042Z,958.96
2018-11-12T11:30:35.062Z,958.93
2018-11-12T11:31:35.084Z,958.95
2018-11-12T11:32:35.108Z,958.93
2018-11-12T11:33:35.126Z,958.92
2018-11-12T11:34:35.146Z,958.84
2018-11-12T11:35:35.165Z,958.91
2018-11-12T11:36:35.188Z,958.94
2018-11-12T11:37:35.256Z,958.97
2018-11-12T11:38:35.227Z,959.03
2018-11-12T11:39:35.248Z,959.06
2018-11-12T11:40:35.330Z,959.04
2018-11-12T11:41:35.297Z,959.02
2018-11-12T11:42:35.312Z,958.97
2018-11-12T11:43:35.334Z,959
2018-11-12T11:44:35.354Z,959.01
2018-11-12T11:45:35.380Z,959.02
2018-11-12T11:46:35.398Z,959.05
2018-11-12T11:47:35.468Z,959.05
2018-11-12T11:48:35.441Z,959.09
2018-11-12T11:49:35.463Z,959.05
2018-11-12T11:50:35.517Z,959.05
2018-11-12T11:51:35.546Z,958.99
2018-11-12T11:52:35.581Z,958.99
2018-11-12T11:53:35.554Z,958.99
2018-11-12T11:54:35.575Z,958.99
2018-11-12T11:55:35.600Z,958.98
2018-11-12T11:56:35.817Z,958.96
2018-11-12T11:57:35.749Z,958.96
2018-11-12T11:58:35.667Z,958.95
2018-11-12T11:59:35.687Z,958.97
2018-11-12T12:00:35.712Z,958.94
2018-11-12T12:01:35.769Z,958.97
2018-11-12T12:02:35.755Z,958.96
2018-11-12T12:03:35.981Z,958.92
2018-11-12T12:04:35.802Z,958.91
2018-11-12T12:05:35.826Z,958.88
2018-11-12T12:06:35.847Z,958.87
2018-11-12T12:07:35.921Z,958.91
2018-11-12T12:08:35.928Z,958.88
2018-11-12T12:09:35.918Z,958.88
2018-11-12T12:10:35.940Z,958.93
2018-11-12T12:11:35.963Z,958.9
2018-11-12T12:12:35.987Z,958.9
2018-11-12T12:13:36.008Z,958.91
2018-11-12T12:14:36.033Z,958.93
2018-11-12T12:15:36.057Z,958.89
2018-11-12T12:16:36.080Z,958.88
2018-11-12T12:17:36.157Z,958.91
2018-11-12T12:18:36.175Z,958.86
2018-11-12T12:19:36.149Z,958.91
2018-11-12T12:20:36.184Z,958.88
2018-11-12T12:21:36.198Z,958.88
2018-11-12T12:22:36.269Z,958.88
2018-11-12T12:23:36.244Z,958.87
2018-11-12T12:24:36.487Z,958.81
2018-11-12T12:25:36.413Z,958.89
2018-11-12T12:26:36.315Z,958.89
2018-11-12T12:27:36.338Z,958.93
2018-11-12T12:28:36.361Z,958.92
2018-11-12T12:29:36.389Z,958.95
2018-11-12T12:30:36.411Z,958.9
2018-11-12T12:31:36.435Z,958.88